sensor_id;sensor_type;location;lat;lon;timestamp;pressure;altitude;pressure_sealevel;temperature;humidity
39773;BME280;25451;51.960;6.250;2023-07-20T00:02:11;101257.44;;;19.77;61.72
39773;BME280;25451;51.960;6.250;2023-07-20T00:04:37;101256.91;;;19.75;61.62
39773;BME280;25451;51.960;6.250;2023-07-20T00:07:03;101242.44;;;19.68;61.91
39773;BME280;25451;51.960;6.250;2023-07-20T00:09:28;101252.19;;;19.71;61.83
39773;BME280;25451;51.960;6.250;2023-07-20T00:11:54;101263.66;;;19.74;61.88
39773;BME280;25451;51.960;6.250;2023-07-20T00:14:20;101252.50;;;19.69;61.60
39773;BME280;25451;51.960;6.250;2023-07-20T00:16:46;101262.28;;;19.72;61.78
39773;BME280;25451;51.960;6.250;2023-07-20T00:19:12;101264.25;;;19.71;61.92
39773;BME280;25451;51.960;6.250;2023-07-20T00:21:37;101257.00;;;19.65;62.02
39773;BME280;25451;51.960;6.250;2023-07-20T00:24:05;101262.03;;;19.68;62.05
39773;BME280;25451;51.960;6.250;2023-07-20T00:26:31;101262.06;;;19.63;62.21
39773;BME280;25451;51.960;6.250;2023-07-20T00:28:56;101249.31;;;19.52;62.31
39773;BME280;25451;51.960;6.250;2023-07-20T00:31:21;101260.50;;;19.52;62.54
39773;BME280;25451;51.960;6.250;2023-07-20T00:33:47;101258.81;;;19.51;62.61
39773;BME280;25451;51.960;6.250;2023-07-20T00:36:12;101263.34;;;19.47;62.62
39773;BME280;25451;51.960;6.250;2023-07-20T00:38:37;101251.06;;;19.43;62.80
39773;BME280;25451;51.960;6.250;2023-07-20T00:41:03;101257.81;;;19.42;62.72
39773;BME280;25451;51.960;6.250;2023-07-20T00:43:29;101253.63;;;19.40;62.92
39773;BME280;25451;51.960;6.250;2023-07-20T00:45:54;101260.34;;;19.39;62.79
39773;BME280;25451;51.960;6.250;2023-07-20T00:48:20;101249.72;;;19.36;62.88
39773;BME280;25451;51.960;6.250;2023-07-20T00:50:46;101255.88;;;19.33;62.92
39773;BME280;25451;51.960;6.250;2023-07-20T00:53:13;101257.59;;;19.34;62.89
39773;BME280;25451;51.960;6.250;2023-07-20T00:55:38;101252.25;;;19.32;62.84
39773;BME280;25451;51.960;6.250;2023-07-20T00:58:04;101253.13;;;19.28;62.86
39773;BME280;25451;51.960;6.250;2023-07-20T01:00:29;101256.47;;;19.30;62.86
39773;BME280;25451;51.960;6.250;2023-07-20T01:02:55;101245.06;;;19.21;62.94
39773;BME280;25451;51.960;6.250;2023-07-20T01:05:21;101253.69;;;19.25;63.15
39773;BME280;25451;51.960;6.250;2023-07-20T01:08:03;101252.31;;;19.22;63.31
39773;BME280;25451;51.960;6.250;2023-07-20T01:10:51;101252.38;;;19.17;63.29
39773;BME280;25451;51.960;6.250;2023-07-20T01:13:19;101256.56;;;19.15;63.49
39773;BME280;25451;51.960;6.250;2023-07-20T01:15:50;101262.47;;;19.13;63.40
39773;BME280;25451;51.960;6.250;2023-07-20T01:18:18;101263.03;;;19.10;63.38
39773;BME280;25451;51.960;6.250;2023-07-20T01:20:44;101256.88;;;19.08;63.67
39773;BME280;25451;51.960;6.250;2023-07-20T01:23:46;101260.00;;;19.07;63.74
39773;BME280;25451;51.960;6.250;2023-07-20T01:31:38;101264.00;;;18.95;64.21
39773;BME280;25451;51.960;6.250;2023-07-20T01:34:05;101259.81;;;18.93;64.34
39773;BME280;25451;51.960;6.250;2023-07-20T01:36:34;101261.75;;;18.97;64.37
39773;BME280;25451;51.960;6.250;2023-07-20T01:39:00;101252.28;;;18.88;64.41
39773;BME280;25451;51.960;6.250;2023-07-20T01:41:25;101258.72;;;18.89;64.42
39773;BME280;25451;51.960;6.250;2023-07-20T01:43:51;101271.56;;;18.95;64.53
39773;BME280;25451;51.960;6.250;2023-07-20T01:46:16;101258.44;;;18.90;64.43
39773;BME280;25451;51.960;6.250;2023-07-20T01:48:42;101262.63;;;18.93;64.76
39773;BME280;25451;51.960;6.250;2023-07-20T01:51:07;101263.16;;;18.90;64.70
39773;BME280;25451;51.960;6.250;2023-07-20T01:53:33;101276.06;;;18.91;64.55
39773;BME280;25451;51.960;6.250;2023-07-20T01:55:59;101270.47;;;18.86;64.42
39773;BME280;25451;51.960;6.250;2023-07-20T01:58:24;101274.97;;;18.87;64.65
39773;BME280;25451;51.960;6.250;2023-07-20T02:00:50;101273.28;;;18.86;64.65
39773;BME280;25451;51.960;6.250;2023-07-20T02:03:15;101267.72;;;18.81;64.66
39773;BME280;25451;51.960;6.250;2023-07-20T02:05:44;101266.56;;;18.82;64.87
39773;BME280;25451;51.960;6.250;2023-07-20T02:08:09;101268.81;;;18.80;64.87
39773;BME280;25451;51.960;6.250;2023-07-20T02:10:35;101263.00;;;18.76;64.89
39773;BME280;25451;51.960;6.250;2023-07-20T02:13:00;101266.31;;;18.78;64.98
39773;BME280;25451;51.960;6.250;2023-07-20T02:15:25;101264.94;;;18.76;64.81
39773;BME280;25451;51.960;6.250;2023-07-20T02:17:52;101268.56;;;18.76;64.86
39773;BME280;25451;51.960;6.250;2023-07-20T02:20:17;101271.13;;;18.73;65.08
39773;BME280;25451;51.960;6.250;2023-07-20T02:22:44;101269.72;;;18.70;64.96
39773;BME280;25451;51.960;6.250;2023-07-20T02:25:10;101282.56;;;18.71;65.07
39773;BME280;25451;51.960;6.250;2023-07-20T02:27:36;101280.06;;;18.70;65.02
39773;BME280;25451;51.960;6.250;2023-07-20T02:30:02;101280.91;;;18.70;64.81
39773;BME280;25451;51.960;6.250;2023-07-20T02:32:29;101269.47;;;18.67;64.76
39773;BME280;25451;51.960;6.250;2023-07-20T02:34:54;101274.22;;;18.66;64.95
39773;BME280;25451;51.960;6.250;2023-07-20T02:37:20;101272.84;;;18.64;64.92
39773;BME280;25451;51.960;6.250;2023-07-20T02:39:45;101277.31;;;18.65;64.93
39773;BME280;25451;51.960;6.250;2023-07-20T02:42:10;101279.56;;;18.63;64.99
39773;BME280;25451;51.960;6.250;2023-07-20T02:44:36;101270.91;;;18.59;64.77
39773;BME280;25451;51.960;6.250;2023-07-20T02:47:01;101289.34;;;18.60;64.88
39773;BME280;25451;51.960;6.250;2023-07-20T02:49:27;101282.06;;;18.59;64.71
39773;BME280;25451;51.960;6.250;2023-07-20T02:51:52;101280.44;;;18.53;64.86
39773;BME280;25451;51.960;6.250;2023-07-20T02:54:18;101284.91;;;18.54;64.89
39773;BME280;25451;51.960;6.250;2023-07-20T02:56:43;101281.88;;;18.51;64.79
39773;BME280;25451;51.960;6.250;2023-07-20T02:59:09;101282.97;;;18.50;64.96
39773;BME280;25451;51.960;6.250;2023-07-20T03:01:34;101282.97;;;18.45;64.96
39773;BME280;25451;51.960;6.250;2023-07-20T03:03:59;101295.84;;;18.46;64.57
39773;BME280;25451;51.960;6.250;2023-07-20T03:06:25;101298.09;;;18.44;64.78
39773;BME280;25451;51.960;6.250;2023-07-20T03:08:50;101291.38;;;18.40;64.75
39773;BME280;25451;51.960;6.250;2023-07-20T03:11:17;101290.81;;;18.38;64.77
39773;BME280;25451;51.960;6.250;2023-07-20T03:13:43;101303.09;;;18.37;64.88
39773;BME280;25451;51.960;6.250;2023-07-20T03:16:10;101299.50;;;18.31;64.83
39773;BME280;25451;51.960;6.250;2023-07-20T03:18:39;101293.38;;;18.24;64.82
39773;BME280;25451;51.960;6.250;2023-07-20T03:21:06;101316.56;;;18.30;64.90
39773;BME280;25451;51.960;6.250;2023-07-20T03:23:32;101314.31;;;18.27;64.81
39773;BME280;25451;51.960;6.250;2023-07-20T03:25:57;101321.59;;;18.22;64.98
39773;BME280;25451;51.960;6.250;2023-07-20T03:28:23;101311.00;;;18.19;64.84
39773;BME280;25451;51.960;6.250;2023-07-20T03:30:57;101313.25;;;18.17;64.87
39773;BME280;25451;51.960;6.250;2023-07-20T03:33:27;101306.28;;;18.10;64.85
39773;BME280;25451;51.960;6.250;2023-07-20T03:35:53;101318.81;;;18.12;64.97
39773;BME280;25451;51.960;6.250;2023-07-20T03:38:19;101317.47;;;18.10;64.69
39773;BME280;25451;51.960;6.250;2023-07-20T03:40:55;101314.09;;;18.08;64.72
39773;BME280;25451;51.960;6.250;2023-07-20T03:43:22;101304.31;;;18.00;64.78
39773;BME280;25451;51.960;6.250;2023-07-20T03:45:48;101315.50;;;18.00;64.78
39773;BME280;25451;51.960;6.250;2023-07-20T03:48:15;101315.50;;;18.00;64.74
39773;BME280;25451;51.960;6.250;2023-07-20T03:50:41;101306.03;;;17.91;64.96
39773;BME280;25451;51.960;6.250;2023-07-20T03:53:06;101318.00;;;17.92;64.89
39773;BME280;25451;51.960;6.250;2023-07-20T03:55:32;101320.00;;;17.86;64.90
39773;BME280;25451;51.960;6.250;2023-07-20T03:57:57;101324.47;;;17.87;64.91
39773;BME280;25451;51.960;6.250;2023-07-20T04:00:23;101319.44;;;17.79;64.76
39773;BME280;25451;51.960;6.250;2023-07-20T04:02:49;101319.16;;;17.81;64.83
39773;BME280;25451;51.960;6.250;2023-07-20T04:05:14;101324.19;;;17.79;65.03
39773;BME280;25451;51.960;6.250;2023-07-20T04:07:39;101321.69;;;17.77;64.89
39773;BME280;25451;51.960;6.250;2023-07-20T04:10:05;101333.41;;;17.74;65.08
39773;BME280;25451;51.960;6.250;2023-07-20T04:12:30;101333.13;;;17.71;65.02
39773;BME280;25451;51.960;6.250;2023-07-20T04:14:55;101335.06;;;17.70;64.88
39773;BME280;25451;51.960;6.250;2023-07-20T04:17:21;101332.88;;;17.67;65.08
39773;BME280;25451;51.960;6.250;2023-07-20T04:19:46;101336.75;;;17.66;64.99
39773;BME280;25451;51.960;6.250;2023-07-20T04:22:11;101332.56;;;17.64;65.10
39773;BME280;25451;51.960;6.250;2023-07-20T04:24:37;101331.19;;;17.61;65.06
39773;BME280;25451;51.960;6.250;2023-07-20T04:27:02;101336.19;;;17.59;65.08
39773;BME280;25451;51.960;6.250;2023-07-20T04:29:28;101343.75;;;17.59;65.13
39773;BME280;25451;51.960;6.250;2023-07-20T04:31:53;101342.06;;;17.58;65.12
39773;BME280;25451;51.960;6.250;2023-07-20T04:34:19;101340.09;;;17.53;65.29
39773;BME280;25451;51.960;6.250;2023-07-20T04:36:44;101339.00;;;17.54;65.22
39773;BME280;25451;51.960;6.250;2023-07-20T04:39:10;101345.41;;;17.55;65.30
39773;BME280;25451;51.960;6.250;2023-07-20T04:41:35;101338.69;;;17.56;65.13
39773;BME280;25451;51.960;6.250;2023-07-20T04:44:00;101346.78;;;17.57;65.13
39773;BME280;25451;51.960;6.250;2023-07-20T04:46:26;101339.00;;;17.54;65.06
39773;BME280;25451;51.960;6.250;2023-07-20T04:48:51;101346.25;;;17.60;65.25
39773;BME280;25451;51.960;6.250;2023-07-20T04:51:17;101340.66;;;17.55;65.56
39773;BME280;25451;51.960;6.250;2023-07-20T04:53:46;101344.56;;;17.64;65.05
39773;BME280;25451;51.960;6.250;2023-07-20T04:56:11;101350.72;;;17.66;65.04
39773;BME280;25451;51.960;6.250;2023-07-20T04:58:37;101353.78;;;17.70;65.03
39773;BME280;25451;51.960;6.250;2023-07-20T05:01:02;101349.03;;;17.70;65.05
39773;BME280;25451;51.960;6.250;2023-07-20T05:03:27;101344.00;;;17.72;65.02
39773;BME280;25451;51.960;6.250;2023-07-20T05:05:53;101352.13;;;17.79;64.85
39773;BME280;25451;51.960;6.250;2023-07-20T05:08:18;101357.44;;;17.85;64.83
39773;BME280;25451;51.960;6.250;2023-07-20T05:10:43;101344.56;;;17.89;64.79
39773;BME280;25451;51.960;6.250;2023-07-20T05:13:09;101348.47;;;17.98;64.80
39773;BME280;25451;51.960;6.250;2023-07-20T05:15:34;101358.25;;;18.06;64.49
39773;BME280;25451;51.960;6.250;2023-07-20T05:18:00;101364.09;;;18.14;64.65
39773;BME280;25451;51.960;6.250;2023-07-20T05:20:25;101356.25;;;18.21;64.32
39773;BME280;25451;51.960;6.250;2023-07-20T05:22:50;101348.41;;;18.29;64.18
39773;BME280;25451;51.960;6.250;2023-07-20T05:25:17;101357.91;;;18.38;64.06
39773;BME280;25451;51.960;6.250;2023-07-20T05:27:43;101359.84;;;18.47;64.02
39773;BME280;25451;51.960;6.250;2023-07-20T05:30:09;101345.88;;;18.47;63.97
39773;BME280;25451;51.960;6.250;2023-07-20T05:32:34;101358.97;;;18.67;63.68
39773;BME280;25451;51.960;6.250;2023-07-20T05:35:00;101367.31;;;18.77;63.60
39773;BME280;25451;51.960;6.250;2023-07-20T05:37:25;101365.88;;;18.84;63.50
39773;BME280;25451;51.960;6.250;2023-07-20T05:39:50;101369.19;;;18.96;63.40
39773;BME280;25451;51.960;6.250;2023-07-20T05:42:16;101358.22;;;19.00;63.39
39773;BME280;25451;51.960;6.250;2023-07-20T05:44:41;101370.22;;;19.16;63.15
39773;BME280;25451;51.960;6.250;2023-07-20T05:47:07;101372.09;;;19.25;63.16
39773;BME280;25451;51.960;6.250;2023-07-20T05:49:33;101383.25;;;19.35;62.92
39773;BME280;25451;51.960;6.250;2023-07-20T05:51:59;101380.16;;;19.42;62.77
39773;BME280;25451;51.960;6.250;2023-07-20T05:54:24;101376.50;;;19.46;62.75
39773;BME280;25451;51.960;6.250;2023-07-20T05:56:50;101384.53;;;19.58;62.72
39773;BME280;25451;51.960;6.250;2023-07-20T05:59:16;101381.97;;;19.61;62.58
39773;BME280;25451;51.960;6.250;2023-07-20T06:01:43;101386.41;;;19.67;62.51
39773;BME280;25451;51.960;6.250;2023-07-20T06:04:08;101390.28;;;19.71;62.48
39773;BME280;25451;51.960;6.250;2023-07-20T06:06:34;101390.84;;;19.73;62.45
39773;BME280;25451;51.960;6.250;2023-07-20T06:09:00;101391.97;;;19.72;62.53
39773;BME280;25451;51.960;6.250;2023-07-20T06:11:29;101394.47;;;19.74;62.57
39773;BME280;25451;51.960;6.250;2023-07-20T06:13:54;101393.06;;;19.76;62.61
39773;BME280;25451;51.960;6.250;2023-07-20T06:16:19;101406.22;;;19.76;62.42
39773;BME280;25451;51.960;6.250;2023-07-20T06:18:45;101392.25;;;19.71;62.66
39773;BME280;25451;51.960;6.250;2023-07-20T06:21:10;101396.16;;;19.75;62.52
39773;BME280;25451;51.960;6.250;2023-07-20T06:23:36;101397.84;;;19.71;62.48
39773;BME280;25451;51.960;6.250;2023-07-20T06:26:01;101397.06;;;19.65;62.52
39773;BME280;25451;51.960;6.250;2023-07-20T06:28:26;101407.72;;;19.63;62.33
39773;BME280;25451;51.960;6.250;2023-07-20T06:30:52;101402.16;;;19.58;62.53
39773;BME280;25451;51.960;6.250;2023-07-20T06:33:17;101407.22;;;19.56;62.42
39773;BME280;25451;51.960;6.250;2023-07-20T06:35:43;101409.47;;;19.54;62.42
39773;BME280;25451;51.960;6.250;2023-07-20T06:38:08;101404.13;;;19.53;62.56
39773;BME280;25451;51.960;6.250;2023-07-20T06:40:33;101400.25;;;19.49;62.29
39773;BME280;25451;51.960;6.250;2023-07-20T06:42:59;101406.69;;;19.49;62.27
39773;BME280;25451;51.960;6.250;2023-07-20T06:45:24;101395.78;;;19.48;62.24
39773;BME280;25451;51.960;6.250;2023-07-20T06:47:50;101402.47;;;19.52;62.04
39773;BME280;25451;51.960;6.250;2023-07-20T06:50:15;101395.50;;;19.49;61.84
39773;BME280;25451;51.960;6.250;2023-07-20T06:52:41;101391.84;;;19.49;61.73
39773;BME280;25451;51.960;6.250;2023-07-20T06:55:06;101400.22;;;19.54;61.68
39773;BME280;25451;51.960;6.250;2023-07-20T06:57:32;101390.19;;;19.48;61.50
39773;BME280;25451;51.960;6.250;2023-07-20T06:59:57;101403.56;;;19.56;61.42
39773;BME280;25451;51.960;6.250;2023-07-20T07:02:23;101385.69;;;19.47;61.32
39773;BME280;25451;51.960;6.250;2023-07-20T07:04:48;101394.63;;;19.54;61.28
39773;BME280;25451;51.960;6.250;2023-07-20T07:07:14;101399.94;;;19.55;61.29
39773;BME280;25451;51.960;6.250;2023-07-20T07:09:39;101399.38;;;19.53;61.17
39773;BME280;25451;51.960;6.250;2023-07-20T07:12:05;101403.81;;;19.59;61.18
39773;BME280;25451;51.960;6.250;2023-07-20T07:14:30;101416.13;;;19.63;61.11
39773;BME280;25451;51.960;6.250;2023-07-20T07:16:56;101425.03;;;19.70;60.83
39773;BME280;25451;51.960;6.250;2023-07-20T07:19:21;101420.53;;;19.74;60.66
39773;BME280;25451;51.960;6.250;2023-07-20T07:21:46;101418.78;;;19.83;60.17
39773;BME280;25451;51.960;6.250;2023-07-20T07:24:12;101424.28;;;19.94;60.25
39773;BME280;25451;51.960;6.250;2023-07-20T07:26:37;101423.09;;;20.05;59.66
39773;BME280;25451;51.960;6.250;2023-07-20T07:29:03;101423.25;;;20.18;59.74
39773;BME280;25451;51.960;6.250;2023-07-20T07:31:30;101424.53;;;20.36;59.48
39773;BME280;25451;51.960;6.250;2023-07-20T07:33:56;101416.00;;;20.46;59.10
39773;BME280;25451;51.960;6.250;2023-07-20T07:36:22;101427.31;;;20.64;58.90
39773;BME280;25451;51.960;6.250;2023-07-20T07:38:49;101436.63;;;20.84;58.31
39773;BME280;25451;51.960;6.250;2023-07-20T07:41:14;101436.28;;;20.90;57.78
39773;BME280;25451;51.960;6.250;2023-07-20T07:43:40;101432.84;;;20.93;57.58
39773;BME280;25451;51.960;6.250;2023-07-20T07:46:05;101440.69;;;20.96;57.43
39773;BME280;25451;51.960;6.250;2023-07-20T07:48:30;101446.22;;;21.01;57.19
39773;BME280;25451;51.960;6.250;2023-07-20T07:50:56;101433.03;;;21.07;56.84
39773;BME280;25451;51.960;6.250;2023-07-20T07:53:21;101427.06;;;21.13;56.44
39773;BME280;25451;51.960;6.250;2023-07-20T07:55:50;101445.81;;;21.36;56.12
39773;BME280;25451;51.960;6.250;2023-07-20T07:58:15;101455.41;;;21.54;55.96
39773;BME280;25451;51.960;6.250;2023-07-20T08:00:41;101447.06;;;21.68;55.81
39773;BME280;25451;51.960;6.250;2023-07-20T08:03:06;101444.34;;;21.81;55.56
39773;BME280;25451;51.960;6.250;2023-07-20T08:05:33;101449.97;;;22.00;55.06
39773;BME280;25451;51.960;6.250;2023-07-20T08:07:58;101456.56;;;22.09;54.79
39773;BME280;25451;51.960;6.250;2023-07-20T08:10:23;101457.22;;;22.19;54.39
39773;BME280;25451;51.960;6.250;2023-07-20T08:12:49;101462.66;;;22.29;53.99
39773;BME280;25451;51.960;6.250;2023-07-20T08:15:14;101449.91;;;22.37;53.78
39773;BME280;25451;51.960;6.250;2023-07-20T08:17:41;101445.47;;;22.50;53.50
39773;BME280;25451;51.960;6.250;2023-07-20T08:20:08;101446.63;;;22.62;53.26
39773;BME280;25451;51.960;6.250;2023-07-20T08:22:36;101455.34;;;22.79;52.77
39773;BME280;25451;51.960;6.250;2023-07-20T08:25:01;101455.44;;;22.88;52.70
39773;BME280;25451;51.960;6.250;2023-07-20T08:27:27;101461.19;;;22.96;52.42
39773;BME280;25451;51.960;6.250;2023-07-20T08:29:52;101459.81;;;23.07;52.33
39773;BME280;25451;51.960;6.250;2023-07-20T08:32:17;101459.31;;;23.19;52.10
39773;BME280;25451;51.960;6.250;2023-07-20T08:34:43;101455.97;;;23.31;52.04
39773;BME280;25451;51.960;6.250;2023-07-20T08:37:08;101462.66;;;23.48;51.70
39773;BME280;25451;51.960;6.250;2023-07-20T08:39:35;101461.16;;;23.64;51.86
39773;BME280;25451;51.960;6.250;2023-07-20T08:42:01;101464.16;;;23.81;51.45
39773;BME280;25451;51.960;6.250;2023-07-20T08:44:29;101463.06;;;23.91;51.53
39773;BME280;25451;51.960;6.250;2023-07-20T08:46:57;101478.59;;;24.02;50.80
39773;BME280;25451;51.960;6.250;2023-07-20T08:49:23;101470.94;;;24.03;51.03
39773;BME280;25451;51.960;6.250;2023-07-20T08:51:50;101467.88;;;24.04;50.55
39773;BME280;25451;51.960;6.250;2023-07-20T08:54:16;101461.06;;;24.05;50.56
39773;BME280;25451;51.960;6.250;2023-07-20T08:56:42;101469.53;;;24.05;49.87
39773;BME280;25451;51.960;6.250;2023-07-20T08:59:12;101471.06;;;24.11;49.61
39773;BME280;25451;51.960;6.250;2023-07-20T09:01:39;101469.28;;;24.15;49.15
39773;BME280;25451;51.960;6.250;2023-07-20T09:04:04;101464.78;;;24.14;49.23
39773;BME280;25451;51.960;6.250;2023-07-20T09:06:30;101475.66;;;24.21;49.07
39773;BME280;25451;51.960;6.250;2023-07-20T09:08:55;101467.47;;;24.19;48.95
39773;BME280;25451;51.960;6.250;2023-07-20T09:11:21;101465.50;;;24.20;48.52
39773;BME280;25451;51.960;6.250;2023-07-20T09:13:46;101457.22;;;24.23;48.52
39773;BME280;25451;51.960;6.250;2023-07-20T09:16:15;101455.94;;;24.29;48.39
39773;BME280;25451;51.960;6.250;2023-07-20T09:18:41;101461.69;;;24.46;48.19
39773;BME280;25451;51.960;6.250;2023-07-20T09:21:06;101460.81;;;24.59;47.71
39773;BME280;25451;51.960;6.250;2023-07-20T09:23:38;101463.22;;;24.75;47.46
39773;BME280;25451;51.960;6.250;2023-07-20T09:26:13;101460.59;;;24.78;47.25
39773;BME280;25451;51.960;6.250;2023-07-20T09:28:51;101459.78;;;24.78;47.30
39773;BME280;25451;51.960;6.250;2023-07-20T09:31:21;101462.78;;;24.81;47.22
39773;BME280;25451;51.960;6.250;2023-07-20T09:33:48;101464.47;;;24.91;46.93
39773;BME280;25451;51.960;6.250;2023-07-20T09:36:14;101469.16;;;24.95;46.56
39773;BME280;25451;51.960;6.250;2023-07-20T09:38:42;101468.66;;;24.93;46.16
39773;BME280;25451;51.960;6.250;2023-07-20T09:41:14;101463.28;;;24.83;46.24
39773;BME280;25451;51.960;6.250;2023-07-20T09:43:41;101459.03;;;24.72;46.53
39773;BME280;25451;51.960;6.250;2023-07-20T09:46:07;101460.66;;;24.64;46.32
39773;BME280;25451;51.960;6.250;2023-07-20T09:48:32;101450.66;;;24.58;46.40
39773;BME280;25451;51.960;6.250;2023-07-20T09:50:58;101446.69;;;24.59;45.98
39773;BME280;25451;51.960;6.250;2023-07-20T09:53:25;101448.66;;;24.59;45.98
39773;BME280;25451;51.960;6.250;2023-07-20T09:55:52;101444.50;;;24.56;45.70
39773;BME280;25451;51.960;6.250;2023-07-20T09:58:17;101452.19;;;24.64;46.09
39773;BME280;25451;51.960;6.250;2023-07-20T10:00:44;101446.91;;;24.72;46.08
39773;BME280;25451;51.960;6.250;2023-07-20T10:03:14;101453.47;;;24.81;46.32
39773;BME280;25451;51.960;6.250;2023-07-20T10:05:43;101439.22;;;24.86;45.95
39773;BME280;25451;51.960;6.250;2023-07-20T10:08:12;101448.19;;;24.88;46.33
39773;BME280;25451;51.960;6.250;2023-07-20T10:10:41;101447.91;;;24.98;46.14
39773;BME280;25451;51.960;6.250;2023-07-20T10:13:10;101443.09;;;25.07;45.56
39773;BME280;25451;51.960;6.250;2023-07-20T10:16:11;101433.66;;;25.11;45.69
39773;BME280;25451;51.960;6.250;2023-07-20T10:21:40;101437.59;;;25.41;45.69
39773;BME280;25451;51.960;6.250;2023-07-20T10:24:08;101424.97;;;25.47;45.58
39773;BME280;25451;51.960;6.250;2023-07-20T10:26:34;101438.28;;;25.55;45.69
39773;BME280;25451;51.960;6.250;2023-07-20T10:29:00;101434.66;;;25.63;45.63
39773;BME280;25451;51.960;6.250;2023-07-20T10:31:26;101436.31;;;25.73;45.58
39773;BME280;25451;51.960;6.250;2023-07-20T10:33:54;101437.66;;;25.75;45.47
39773;BME280;25451;51.960;6.250;2023-07-20T10:36:27;101437.81;;;25.79;45.73
39773;BME280;25451;51.960;6.250;2023-07-20T10:38:57;101438.47;;;25.84;45.95
39773;BME280;25451;51.960;6.250;2023-07-20T10:41:35;101432.81;;;25.93;45.67
39773;BME280;25451;51.960;6.250;2023-07-20T10:44:07;101431.00;;;25.97;45.69
39773;BME280;25451;51.960;6.250;2023-07-20T10:49:05;101427.50;;;26.00;45.12
39773;BME280;25451;51.960;6.250;2023-07-20T10:51:48;101431.16;;;26.00;44.96
39773;BME280;25451;51.960;6.250;2023-07-20T10:56:43;101416.69;;;25.93;44.75
39773;BME280;25451;51.960;6.250;2023-07-20T11:01:58;101414.00;;;25.88;44.12
39773;BME280;25451;51.960;6.250;2023-07-20T11:04:41;101411.69;;;25.90;44.16
39773;BME280;25451;51.960;6.250;2023-07-20T11:07:06;101404.88;;;25.91;43.83
39773;BME280;25451;51.960;6.250;2023-07-20T11:09:36;101403.69;;;25.92;43.51
39773;BME280;25451;51.960;6.250;2023-07-20T11:12:15;101402.03;;;25.83;43.08
39773;BME280;25451;51.960;6.250;2023-07-20T11:17:14;101403.69;;;25.92;43.50
39773;BME280;25451;51.960;6.250;2023-07-20T11:19:40;101398.38;;;25.99;43.63
39773;BME280;25451;51.960;6.250;2023-07-20T11:22:07;101407.53;;;26.05;43.63
39773;BME280;25451;51.960;6.250;2023-07-20T11:24:33;101405.56;;;26.14;43.62
39773;BME280;25451;51.960;6.250;2023-07-20T11:26:59;101406.34;;;26.14;43.52
39773;BME280;25451;51.960;6.250;2023-07-20T11:29:25;101405.56;;;26.14;43.20
39773;BME280;25451;51.960;6.250;2023-07-20T11:31:51;101387.38;;;26.06;43.08
39773;BME280;25451;51.960;6.250;2023-07-20T11:34:18;101398.22;;;26.13;43.33
39773;BME280;25451;51.960;6.250;2023-07-20T11:36:45;101391.56;;;26.17;43.39
39773;BME280;25451;51.960;6.250;2023-07-20T11:39:13;101390.38;;;26.18;43.36
39773;BME280;25451;51.960;6.250;2023-07-20T11:41:39;101397.88;;;26.23;43.38
39773;BME280;25451;51.960;6.250;2023-07-20T11:44:10;101395.03;;;26.23;43.43
39773;BME280;25451;51.960;6.250;2023-07-20T11:46:42;101392.56;;;26.21;42.85
39773;BME280;25451;51.960;6.250;2023-07-20T11:49:08;101391.56;;;26.17;42.57
39773;BME280;25451;51.960;6.250;2023-07-20T11:51:34;101381.09;;;26.09;42.27
39773;BME280;25451;51.960;6.250;2023-07-20T11:54:01;101383.91;;;26.09;42.58
39773;BME280;25451;51.960;6.250;2023-07-20T11:56:27;101383.41;;;26.16;42.63
39773;BME280;25451;51.960;6.250;2023-07-20T11:58:57;101377.75;;;26.24;42.47
39773;BME280;25451;51.960;6.250;2023-07-20T12:01:25;101367.69;;;26.36;42.39
39773;BME280;25451;51.960;6.250;2023-07-20T12:03:55;101368.66;;;26.57;42.54
39773;BME280;25451;51.960;6.250;2023-07-20T12:06:23;101368.09;;;26.72;42.01
39773;BME280;25451;51.960;6.250;2023-07-20T12:08:49;101362.41;;;26.80;41.49
39773;BME280;25451;51.960;6.250;2023-07-20T12:11:33;101366.22;;;26.84;41.45
39773;BME280;25451;51.960;6.250;2023-07-20T12:13:59;101359.03;;;26.87;41.37
39773;BME280;25451;51.960;6.250;2023-07-20T12:16:27;101364.97;;;26.94;41.57
39773;BME280;25451;51.960;6.250;2023-07-20T12:19:00;101355.13;;;27.00;41.56
39773;BME280;25451;51.960;6.250;2023-07-20T12:21:26;101374.91;;;27.08;41.60
39773;BME280;25451;51.960;6.250;2023-07-20T12:23:51;101365.38;;;27.13;41.55
39773;BME280;25451;51.960;6.250;2023-07-20T12:26:17;101370.88;;;27.18;41.63
39773;BME280;25451;51.960;6.250;2023-07-20T12:28:42;101366.84;;;27.19;41.71
39773;BME280;25451;51.960;6.250;2023-07-20T12:31:09;101358.97;;;27.25;41.66
39773;BME280;25451;51.960;6.250;2023-07-20T12:33:36;101354.13;;;27.25;41.72
39773;BME280;25451;51.960;6.250;2023-07-20T12:36:01;101356.97;;;27.25;41.71
39773;BME280;25451;51.960;6.250;2023-07-20T12:38:27;101377.28;;;27.27;41.65
39773;BME280;25451;51.960;6.250;2023-07-20T12:40:53;101365.81;;;27.24;41.66
39773;BME280;25451;51.960;6.250;2023-07-20T12:43:21;101362.19;;;27.15;41.50
39773;BME280;25451;51.960;6.250;2023-07-20T12:45:47;101368.44;;;27.08;41.30
39773;BME280;25451;51.960;6.250;2023-07-20T12:48:12;101367.63;;;26.99;41.47
39773;BME280;25451;51.960;6.250;2023-07-20T12:50:38;101368.38;;;26.87;41.05
39773;BME280;25451;51.960;6.250;2023-07-20T12:53:03;101354.09;;;26.67;40.98
39773;BME280;25451;51.960;6.250;2023-07-20T12:55:29;101372.28;;;26.57;41.17
39773;BME280;25451;51.960;6.250;2023-07-20T12:57:54;101366.19;;;26.47;41.12
39773;BME280;25451;51.960;6.250;2023-07-20T13:00:20;101362.19;;;26.39;41.34
39773;BME280;25451;51.960;6.250;2023-07-20T13:02:47;101363.53;;;26.33;41.35
39773;BME280;25451;51.960;6.250;2023-07-20T13:05:12;101357.59;;;26.26;41.27
39773;BME280;25451;51.960;6.250;2023-07-20T13:07:38;101355.75;;;26.13;41.22